createdAt,value
2017-07-24T00:00:19.717Z,2.23
2017-07-24T00:02:45.543Z,1.67
2017-07-24T00:05:11.420Z,1.50
2017-07-24T00:07:37.368Z,1.80
2017-07-24T00:10:03.172Z,2.03
2017-07-24T00:12:29.062Z,1.80
2017-07-24T00:14:54.897Z,2.00
2017-07-24T00:17:20.843Z,1.30
2017-07-24T00:19:46.666Z,1.77
2017-07-24T00:22:12.486Z,1.67
2017-07-24T00:24:38.331Z,1.17
2017-07-24T00:27:04.196Z,1.80
2017-07-24T00:29:30.149Z,1.67
2017-07-24T00:31:56.049Z,1.53
2017-07-24T00:34:21.947Z,1.30
2017-07-24T00:36:47.779Z,1.87
2017-07-24T00:39:13.601Z,1.30
2017-07-24T00:41:39.437Z,1.30
2017-07-24T00:44:05.276Z,1.50
2017-07-24T00:46:31.898Z,1.90
2017-07-24T00:48:57.701Z,1.60
2017-07-24T00:51:23.606Z,1.70
2017-07-24T00:53:49.419Z,2.00
2017-07-24T00:56:15.442Z,1.40
2017-07-24T00:58:41.455Z,1.90
2017-07-24T01:01:07.255Z,1.77
2017-07-24T01:03:33.072Z,1.60
2017-07-24T01:05:58.940Z,1.47
2017-07-24T01:08:24.862Z,1.43
2017-07-24T01:10:50.725Z,1.47
2017-07-24T01:13:16.609Z,1.50
2017-07-24T01:15:42.550Z,2.03
2017-07-24T01:18:08.347Z,1.67
2017-07-24T01:20:34.193Z,1.53
2017-07-24T01:23:00.023Z,1.50
2017-07-24T01:25:26.740Z,1.67
2017-07-24T01:27:52.626Z,1.73
2017-07-24T01:30:18.496Z,1.43
2017-07-24T01:32:44.343Z,1.70
2017-07-24T01:35:10.175Z,1.37
2017-07-24T01:37:36.043Z,1.50
2017-07-24T01:40:01.962Z,1.73
2017-07-24T01:42:27.813Z,1.20
2017-07-24T01:44:53.625Z,1.30
2017-07-24T01:47:19.737Z,1.17
2017-07-24T01:49:45.658Z,1.70
2017-07-24T01:52:11.516Z,1.30
2017-07-24T01:54:37.378Z,1.67
2017-07-24T01:57:03.299Z,1.90
2017-07-24T01:59:29.137Z,1.57
2017-07-24T02:01:55.059Z,1.67
2017-07-24T02:04:20.938Z,1.60
2017-07-24T02:06:46.844Z,1.97
2017-07-24T02:09:12.694Z,1.43
2017-07-24T02:11:38.589Z,1.50
2017-07-24T02:14:04.414Z,1.50
2017-07-24T02:16:30.245Z,1.87
2017-07-24T02:18:56.143Z,1.70
2017-07-24T02:21:21.965Z,1.47
2017-07-24T02:23:47.873Z,1.70
2017-07-24T02:26:13.766Z,2.07
2017-07-24T02:28:39.568Z,1.90
2017-07-24T02:31:05.449Z,1.53
2017-07-24T02:33:31.403Z,1.90
2017-07-24T02:35:57.206Z,1.50
2017-07-24T02:38:23.111Z,1.60
2017-07-24T02:40:49.041Z,1.90
2017-07-24T02:43:14.869Z,1.47
2017-07-24T02:45:40.748Z,1.60
2017-07-24T02:48:06.613Z,1.90
2017-07-24T02:50:32.502Z,1.57
2017-07-24T02:52:58.327Z,1.60
2017-07-24T02:55:24.193Z,1.50
2017-07-24T02:57:50.046Z,1.50
2017-07-24T03:00:15.894Z,1.90
2017-07-24T03:02:41.826Z,2.20
2017-07-24T03:05:07.632Z,1.90
2017-07-24T03:07:33.485Z,1.40
2017-07-24T03:09:59.333Z,1.43
2017-07-24T03:12:25.158Z,1.40
2017-07-24T03:14:51.008Z,1.70
2017-07-24T03:17:16.923Z,2.20
2017-07-24T03:19:42.757Z,1.60
2017-07-24T03:22:08.579Z,1.37
2017-07-24T03:24:34.400Z,1.70
2017-07-24T03:27:00.265Z,1.60
2017-07-24T03:29:26.139Z,1.60
2017-07-24T03:31:52.122Z,1.50
2017-07-24T03:34:17.946Z,1.60
2017-07-24T03:36:43.790Z,3.07
2017-07-24T03:39:16.774Z,1.30
2017-07-24T03:41:42.749Z,2.28
2017-07-24T03:44:08.582Z,1.40
2017-07-24T03:46:35.240Z,1.53
2017-07-24T03:49:01.224Z,1.90
2017-07-24T03:51:27.046Z,2.10
2017-07-24T03:53:52.844Z,1.90
2017-07-24T03:56:18.705Z,2.13
2017-07-24T03:58:44.501Z,2.10
2017-07-24T04:01:10.348Z,1.50
2017-07-24T04:04:05.360Z,1.87
2017-07-24T04:06:31.193Z,1.60
2017-07-24T04:08:56.986Z,1.80
2017-07-24T04:11:22.825Z,1.77
2017-07-24T04:13:48.646Z,2.10
2017-07-24T04:16:21.284Z,1.57
2017-07-24T04:18:47.092Z,1.80
2017-07-24T04:21:12.890Z,1.40
2017-07-24T04:23:38.708Z,2.20
2017-07-24T04:26:04.558Z,1.80
2017-07-24T04:28:30.405Z,2.00
2017-07-24T04:30:56.325Z,2.43
2017-07-24T04:33:22.145Z,1.73
2017-07-24T04:35:48.013Z,2.23
2017-07-24T04:38:13.804Z,1.80
2017-07-24T04:40:39.594Z,2.30
2017-07-24T04:43:05.432Z,1.80
2017-07-24T04:45:31.228Z,1.80
2017-07-24T04:47:57.065Z,2.03
2017-07-24T04:50:22.912Z,1.67
2017-07-24T04:52:48.722Z,1.33
2017-07-24T04:55:14.518Z,1.53
2017-07-24T04:57:40.430Z,1.77
2017-07-24T05:00:06.258Z,1.63
2017-07-24T05:02:32.181Z,2.13
2017-07-24T05:04:58.005Z,1.73
2017-07-24T05:07:23.885Z,1.60
2017-07-24T05:09:49.738Z,1.97
2017-07-24T05:12:15.661Z,2.10
2017-07-24T05:14:41.578Z,1.47
2017-07-24T05:17:07.487Z,1.83
2017-07-24T05:19:33.306Z,1.90
2017-07-24T05:21:59.216Z,2.00
2017-07-24T05:24:25.033Z,1.67
2017-07-24T05:26:50.834Z,1.50
2017-07-24T05:29:16.689Z,1.70
2017-07-24T05:31:42.675Z,1.40
2017-07-24T05:34:08.516Z,1.67
2017-07-24T05:36:34.326Z,2.80
2017-07-24T05:39:00.149Z,1.70
2017-07-24T05:41:25.987Z,2.20
2017-07-24T05:43:51.921Z,2.07
2017-07-24T05:46:18.325Z,1.37
2017-07-24T05:48:44.187Z,1.90
2017-07-24T05:51:09.993Z,1.37
2017-07-24T05:53:35.845Z,1.70
2017-07-24T05:56:01.689Z,1.60
2017-07-24T05:58:27.504Z,1.80
2017-07-24T06:00:53.348Z,1.40
2017-07-24T06:03:19.267Z,1.50
2017-07-24T06:05:45.086Z,1.50
2017-07-24T06:08:10.944Z,1.60
2017-07-24T06:10:36.745Z,1.63
2017-07-24T06:13:02.561Z,1.57
2017-07-24T06:15:28.374Z,1.33
2017-07-24T06:17:54.245Z,1.50
2017-07-24T06:20:20.045Z,1.37
2017-07-24T06:22:45.837Z,1.17
2017-07-24T06:25:11.677Z,1.37
2017-07-24T06:27:37.585Z,1.63
2017-07-24T06:30:03.556Z,1.80
2017-07-24T06:32:29.405Z,1.30
2017-07-24T06:34:55.315Z,1.27
2017-07-24T06:37:21.120Z,1.30
2017-07-24T06:39:47.070Z,1.53
2017-07-24T06:42:13.594Z,2.10
2017-07-24T06:44:39.404Z,1.43
2017-07-24T06:47:05.321Z,1.70
2017-07-24T06:49:31.121Z,1.23
2017-07-24T06:51:56.949Z,1.80
2017-07-24T06:54:22.886Z,1.60
2017-07-24T06:56:48.697Z,1.13
2017-07-24T06:59:14.673Z,1.33
2017-07-24T07:01:40.625Z,1.17
2017-07-24T07:04:06.441Z,0.93
2017-07-24T07:06:32.300Z,1.23
2017-07-24T07:08:58.321Z,1.40
2017-07-24T07:11:24.207Z,1.60
2017-07-24T07:13:50.136Z,1.67
2017-07-24T07:16:15.932Z,1.30
2017-07-24T07:18:41.793Z,1.20
2017-07-24T07:21:07.611Z,1.20
2017-07-24T07:23:33.447Z,1.33
2017-07-24T07:25:59.256Z,1.87
2017-07-24T07:28:25.160Z,1.20
2017-07-24T07:30:50.977Z,1.40
2017-07-24T07:33:16.799Z,1.40
2017-07-24T07:35:42.652Z,1.50
2017-07-24T07:38:08.525Z,1.73
2017-07-24T07:40:45.138Z,1.20
2017-07-24T07:43:10.848Z,1.77
2017-07-24T07:45:36.648Z,1.00
2017-07-24T07:48:02.376Z,1.40
2017-07-24T07:50:28.200Z,1.90
2017-07-24T07:52:53.897Z,1.40
2017-07-24T07:55:19.823Z,1.23
2017-07-24T07:57:45.531Z,1.33
2017-07-24T08:00:11.267Z,1.00
2017-07-24T08:02:37.044Z,1.20
2017-07-24T08:05:02.789Z,0.77
2017-07-24T08:07:28.674Z,0.97
2017-07-24T08:09:54.453Z,0.80
2017-07-24T08:12:20.292Z,0.67
2017-07-24T08:14:46.013Z,0.60
2017-07-24T08:17:11.709Z,0.70
2017-07-24T08:19:37.514Z,0.70
2017-07-24T08:22:03.320Z,0.70
2017-07-24T08:24:29.031Z,0.70
2017-07-24T08:26:54.746Z,0.80
2017-07-24T08:29:20.484Z,0.70
2017-07-24T08:31:46.266Z,0.70
2017-07-24T08:34:11.988Z,0.63
2017-07-24T08:36:37.709Z,0.80
2017-07-24T08:39:03.426Z,0.80
2017-07-24T08:41:29.171Z,0.80
2017-07-24T08:43:54.861Z,0.90
2017-07-24T08:46:20.764Z,0.60
2017-07-24T08:48:46.456Z,0.70
2017-07-24T08:51:12.216Z,0.70
2017-07-24T08:53:37.944Z,0.57
2017-07-24T08:56:03.737Z,0.70
2017-07-24T08:58:29.472Z,0.60
2017-07-24T09:00:55.169Z,0.60
2017-07-24T09:03:21.096Z,0.57
2017-07-24T09:05:46.857Z,0.60
2017-07-24T09:08:12.608Z,0.83
2017-07-24T09:10:38.300Z,0.60
2017-07-24T09:13:04.085Z,0.50
2017-07-24T09:15:29.876Z,0.70
2017-07-24T09:17:55.604Z,0.70
2017-07-24T09:20:21.328Z,0.60
2017-07-24T09:22:47.016Z,0.70
2017-07-24T09:25:12.783Z,0.70
2017-07-24T09:27:38.587Z,0.60
2017-07-24T09:30:04.420Z,0.80
2017-07-24T09:32:30.204Z,0.60
2017-07-24T09:34:56.089Z,0.67
2017-07-24T09:37:21.888Z,0.60
2017-07-24T09:39:47.580Z,0.60
2017-07-24T09:42:13.266Z,0.60
2017-07-24T09:44:39.189Z,1.30
2017-07-24T09:47:04.938Z,0.90
2017-07-24T09:49:30.677Z,0.77
2017-07-24T09:51:56.402Z,0.70
2017-07-24T09:54:22.153Z,0.60
2017-07-24T09:56:47.871Z,0.90
2017-07-24T09:59:13.594Z,1.00
2017-07-24T10:01:39.283Z,0.70
2017-07-24T10:04:05.125Z,0.70
2017-07-24T10:06:30.898Z,0.60
2017-07-24T10:08:57.721Z,0.63
2017-07-24T10:11:23.509Z,0.80
2017-07-24T10:13:49.257Z,0.70
2017-07-24T10:16:14.952Z,0.70
2017-07-24T10:18:40.752Z,0.60
2017-07-24T10:21:06.688Z,0.70
2017-07-24T10:23:32.430Z,0.63
2017-07-24T10:25:58.126Z,0.70
2017-07-24T10:28:23.820Z,0.70
2017-07-24T10:30:49.560Z,0.90
2017-07-24T10:33:15.274Z,0.60
2017-07-24T10:35:41.102Z,0.70
2017-07-24T10:38:06.889Z,1.03
2017-07-24T10:40:32.626Z,0.60
2017-07-24T10:42:58.416Z,0.67
2017-07-24T10:45:24.180Z,0.90
2017-07-24T10:47:49.978Z,0.70
2017-07-24T10:50:15.792Z,0.70
2017-07-24T10:52:41.508Z,1.00
2017-07-24T10:55:07.212Z,0.90
2017-07-24T10:57:32.938Z,1.20
2017-07-24T10:59:58.679Z,0.90
2017-07-24T11:02:24.574Z,1.07
2017-07-24T11:04:50.301Z,0.93
2017-07-24T11:07:16.090Z,0.83
2017-07-24T11:09:42.066Z,1.13
2017-07-24T11:12:07.764Z,0.80
2017-07-24T11:14:33.573Z,1.03
2017-07-24T11:16:59.417Z,1.00
2017-07-24T11:19:27.359Z,1.40
2017-07-24T11:21:53.064Z,1.00
2017-07-24T11:24:18.757Z,1.23
2017-07-24T11:26:44.520Z,0.90
2017-07-24T11:29:10.336Z,1.27
2017-07-24T11:31:36.140Z,0.90
2017-07-24T11:34:01.828Z,0.80
2017-07-24T11:36:27.562Z,0.83
2017-07-24T11:38:53.408Z,0.87
2017-07-24T11:41:19.192Z,0.73
2017-07-24T11:43:44.880Z,0.90
2017-07-24T11:46:11.404Z,0.77
2017-07-24T11:48:37.150Z,0.80
2017-07-24T11:51:02.908Z,0.80
2017-07-24T11:53:28.711Z,0.80
2017-07-24T11:55:54.455Z,1.03
2017-07-24T11:58:20.158Z,0.80
2017-07-24T12:00:45.946Z,1.10
2017-07-24T12:03:11.916Z,1.10
2017-07-24T12:05:37.640Z,1.00
2017-07-24T12:08:03.413Z,1.57
2017-07-24T12:10:29.112Z,0.70
2017-07-24T12:12:54.870Z,1.30
2017-07-24T12:15:20.694Z,0.90
2017-07-24T12:17:46.577Z,1.10
2017-07-24T12:20:12.289Z,1.10
2017-07-24T12:22:37.994Z,1.57
2017-07-24T12:25:03.798Z,1.20
2017-07-24T12:27:29.625Z,1.00
2017-07-24T12:29:55.360Z,0.97
2017-07-24T12:32:21.048Z,1.40
2017-07-24T12:34:46.811Z,2.97
2017-07-24T12:37:12.535Z,1.23
2017-07-24T12:39:38.272Z,0.90
2017-07-24T12:42:04.068Z,0.90
2017-07-24T12:44:29.851Z,0.70
2017-07-24T12:46:55.596Z,0.90
2017-07-24T12:49:21.348Z,1.00
2017-07-24T12:51:47.122Z,1.03
2017-07-24T12:54:13.003Z,0.87
2017-07-24T12:56:38.777Z,1.00
2017-07-24T12:59:04.633Z,0.83
2017-07-24T13:01:37.313Z,0.90
2017-07-24T13:04:03.049Z,0.90
2017-07-24T13:06:28.803Z,1.00
2017-07-24T13:08:54.636Z,0.80
2017-07-24T13:11:20.557Z,0.80
2017-07-24T13:13:46.281Z,1.10
2017-07-24T13:16:12.069Z,0.80
2017-07-24T13:18:37.964Z,0.90
2017-07-24T13:21:03.694Z,0.90
2017-07-24T13:23:29.620Z,0.87
2017-07-24T13:25:55.352Z,1.00
2017-07-24T13:28:21.252Z,0.80
2017-07-24T13:30:47.011Z,0.90
2017-07-24T13:33:12.712Z,1.10
2017-07-24T13:35:38.487Z,0.80
2017-07-24T13:38:04.236Z,0.90
2017-07-24T13:40:29.920Z,1.00
2017-07-24T13:42:55.776Z,0.80
2017-07-24T13:45:21.466Z,0.80
2017-07-24T13:47:47.417Z,0.87
2017-07-24T13:50:13.148Z,1.00
2017-07-24T13:52:38.927Z,2.77
2017-07-24T13:55:04.702Z,1.20
2017-07-24T13:57:30.626Z,0.90
2017-07-24T13:59:56.403Z,0.90
2017-07-24T14:02:22.339Z,0.90
2017-07-24T14:04:48.345Z,1.00
2017-07-24T14:07:14.164Z,1.00
2017-07-24T14:09:40.895Z,0.80
2017-07-24T14:12:06.641Z,1.00
2017-07-24T14:14:32.401Z,0.90
2017-07-24T14:16:58.349Z,0.90
2017-07-24T14:19:24.284Z,1.00
2017-07-24T14:21:50.016Z,1.30
2017-07-24T14:24:15.844Z,1.07
2017-07-24T14:26:41.625Z,1.00
2017-07-24T14:29:07.443Z,1.10
2017-07-24T14:31:33.366Z,1.57
2017-07-24T14:33:59.080Z,1.10
2017-07-24T14:36:25.020Z,1.00
2017-07-24T14:38:50.718Z,0.80
2017-07-24T14:41:16.611Z,1.00
2017-07-24T14:43:42.484Z,0.90
2017-07-24T14:46:08.877Z,1.67
2017-07-24T14:48:34.685Z,1.33
2017-07-24T14:51:00.456Z,1.10
2017-07-24T14:53:41.307Z,1.10
2017-07-24T14:56:07.036Z,1.20
2017-07-24T14:58:32.862Z,1.43
2017-07-24T15:00:58.713Z,1.03
2017-07-24T15:03:25.579Z,1.43
2017-07-24T15:05:52.120Z,1.33
2017-07-24T15:08:21.483Z,1.23
2017-07-24T15:10:47.326Z,1.57
2017-07-24T15:13:13.672Z,1.77
2017-07-24T15:15:39.617Z,1.50
2017-07-24T15:18:05.384Z,1.80
2017-07-24T15:20:35.016Z,1.23
2017-07-24T15:23:05.221Z,1.60
2017-07-24T15:25:32.590Z,1.13
2017-07-24T15:28:02.144Z,1.57
2017-07-24T15:30:28.042Z,1.33
2017-07-24T15:32:53.776Z,1.40
2017-07-24T15:35:19.596Z,1.10
2017-07-24T15:37:47.270Z,1.30
2017-07-24T15:40:13.077Z,1.10
2017-07-24T15:42:38.965Z,1.60
2017-07-24T15:45:05.312Z,1.30
2017-07-24T15:47:31.216Z,1.73
2017-07-24T15:49:56.921Z,1.00
2017-07-24T15:52:22.738Z,0.80
2017-07-24T15:54:48.669Z,1.00
2017-07-24T15:57:14.450Z,1.03
2017-07-24T15:59:40.206Z,1.00
2017-07-24T16:02:05.912Z,1.03
2017-07-24T16:04:31.682Z,1.57
2017-07-24T16:06:57.442Z,1.27
2017-07-24T16:09:23.152Z,1.20
2017-07-24T16:11:50.369Z,1.00
2017-07-24T16:14:16.186Z,0.90
2017-07-24T16:16:42.433Z,0.87
2017-07-24T16:19:08.260Z,1.13
2017-07-24T16:21:34.032Z,0.93
2017-07-24T16:23:59.830Z,1.10
2017-07-24T16:26:25.531Z,1.07
2017-07-24T16:28:51.277Z,1.17
2017-07-24T16:31:17.127Z,1.00
2017-07-24T16:33:42.936Z,1.17
2017-07-24T16:36:08.701Z,1.37
2017-07-24T16:38:34.422Z,0.90
2017-07-24T16:41:00.152Z,1.00
2017-07-24T16:43:25.849Z,1.23
2017-07-24T16:45:51.593Z,1.10
2017-07-24T16:48:17.492Z,0.93
2017-07-24T16:50:44.026Z,0.90
2017-07-24T16:53:09.976Z,1.10
2017-07-24T16:55:36.721Z,8.90
2017-07-24T16:58:02.505Z,5.35
2017-07-24T17:00:28.247Z,1.07
2017-07-24T17:02:53.985Z,1.00
2017-07-24T17:05:19.769Z,1.00
2017-07-24T17:07:45.576Z,0.90
2017-07-24T17:10:11.324Z,1.50
2017-07-24T17:12:37.084Z,1.43
2017-07-24T17:15:02.816Z,1.50
2017-07-24T17:17:28.528Z,1.10
2017-07-24T17:19:54.276Z,1.20
2017-07-24T17:22:20.261Z,1.20
2017-07-24T17:24:45.979Z,1.20
2017-07-24T17:27:11.726Z,1.50
2017-07-24T17:29:37.465Z,1.53
2017-07-24T17:32:03.254Z,1.00
2017-07-24T17:34:28.953Z,1.70
2017-07-24T17:36:54.714Z,1.60
2017-07-24T17:39:20.440Z,1.47
2017-07-24T17:41:46.547Z,1.20
2017-07-24T17:44:13.343Z,1.35
2017-07-24T17:46:39.147Z,1.30
2017-07-24T17:49:05.012Z,1.40
2017-07-24T17:51:30.784Z,1.60
2017-07-24T17:53:56.536Z,1.17
2017-07-24T17:56:22.252Z,1.53
2017-07-24T17:58:48.040Z,1.10
2017-07-24T18:01:17.550Z,1.60
2017-07-24T18:03:43.303Z,1.10
2017-07-24T18:06:09.238Z,2.23
2017-07-24T18:08:35.030Z,1.50
2017-07-24T18:11:01.392Z,1.40
2017-07-24T18:13:27.208Z,1.30
2017-07-24T18:15:53.643Z,1.90
2017-07-24T18:18:19.457Z,1.27
2017-07-24T18:20:46.082Z,1.33
2017-07-24T18:23:11.933Z,1.70
2017-07-24T18:25:41.666Z,1.27
2017-07-24T18:28:07.431Z,1.15
2017-07-24T18:30:33.137Z,1.20
2017-07-24T18:32:58.853Z,1.13
2017-07-24T18:35:34.006Z,1.07
2017-07-24T18:38:00.753Z,0.90
2017-07-24T18:40:27.178Z,1.10
2017-07-24T18:42:53.652Z,1.10
2017-07-24T18:45:19.406Z,1.05
2017-07-24T18:47:45.324Z,1.50
2017-07-24T18:50:11.078Z,1.70
2017-07-24T18:52:36.959Z,1.30
2017-07-24T18:55:02.791Z,8.73
2017-07-24T18:57:28.516Z,2.57
2017-07-24T18:59:54.413Z,1.57
2017-07-24T19:02:20.161Z,2.03
2017-07-24T19:04:46.076Z,1.57
2017-07-24T19:07:12.421Z,1.80
2017-07-24T19:09:38.257Z,1.48
2017-07-24T19:12:04.065Z,1.73
2017-07-24T19:14:29.928Z,1.67
2017-07-24T19:16:55.775Z,2.07
2017-07-24T19:19:21.608Z,1.80
2017-07-24T19:21:47.386Z,1.60
2017-07-24T19:24:13.247Z,1.63
2017-07-24T19:26:39.064Z,2.60
2017-07-24T19:29:04.759Z,1.83
2017-07-24T19:31:30.485Z,2.67
2017-07-24T19:33:56.179Z,2.60
2017-07-24T19:36:21.911Z,2.57
2017-07-24T19:38:47.655Z,2.20
2017-07-24T19:41:13.450Z,2.53
2017-07-24T19:43:39.194Z,2.20
2017-07-24T19:46:04.913Z,2.63
2017-07-24T19:48:30.699Z,2.30
2017-07-24T19:50:56.647Z,2.80
2017-07-24T19:53:22.418Z,2.10
2017-07-24T19:55:48.212Z,1.90
2017-07-24T19:58:13.998Z,2.03
2017-07-24T20:00:39.917Z,2.47
2017-07-24T20:03:05.742Z,2.50
2017-07-24T20:05:31.461Z,2.07
2017-07-24T20:07:57.261Z,2.50
2017-07-24T20:10:22.994Z,2.07
2017-07-24T20:12:48.715Z,2.10
2017-07-24T20:15:14.535Z,2.40
2017-07-24T20:17:40.371Z,2.20
2017-07-24T20:20:06.224Z,3.93
2017-07-24T20:22:31.990Z,5.57
2017-07-24T20:24:57.821Z,2.10
2017-07-24T20:27:23.596Z,1.90
2017-07-24T20:29:49.342Z,2.10
2017-07-24T20:32:15.133Z,2.30
2017-07-24T20:34:40.875Z,2.20
2017-07-24T20:37:06.736Z,2.10
2017-07-24T20:39:32.544Z,2.30
2017-07-24T20:41:58.406Z,1.93
2017-07-24T20:44:24.140Z,2.00
2017-07-24T20:46:50.086Z,1.80
2017-07-24T20:49:15.842Z,2.30
2017-07-24T20:51:41.748Z,2.00
2017-07-24T20:54:07.539Z,2.07
2017-07-24T20:56:33.308Z,2.17
2017-07-24T20:58:59.126Z,3.20
2017-07-24T21:01:24.974Z,2.00
2017-07-24T21:03:50.779Z,2.23
2017-07-24T21:06:16.531Z,2.60
2017-07-24T21:08:42.400Z,2.27
2017-07-24T21:11:08.935Z,2.17
2017-07-24T21:13:34.794Z,2.30
2017-07-24T21:16:00.590Z,2.83
2017-07-24T21:18:26.438Z,2.33
2017-07-24T21:20:52.232Z,2.43
2017-07-24T21:23:18.044Z,2.17
2017-07-24T21:25:43.914Z,2.77
2017-07-24T21:28:09.679Z,2.90
2017-07-24T21:30:35.402Z,2.67
2017-07-24T21:33:01.108Z,3.77
2017-07-24T21:35:26.840Z,2.27
2017-07-24T21:37:52.560Z,2.13
2017-07-24T21:40:18.382Z,1.90
2017-07-24T21:42:44.200Z,2.90
2017-07-24T21:45:10.103Z,2.77
2017-07-24T21:47:35.812Z,2.87
2017-07-24T21:50:01.546Z,3.27
2017-07-24T21:52:27.256Z,3.13
2017-07-24T21:54:53.181Z,2.73
2017-07-24T21:57:18.900Z,2.87
2017-07-24T21:59:44.704Z,3.00
2017-07-24T22:02:10.552Z,3.00
2017-07-24T22:04:36.355Z,3.00
2017-07-24T22:07:02.182Z,3.70
2017-07-24T22:09:27.978Z,3.27
2017-07-24T22:11:53.713Z,3.07
2017-07-24T22:14:19.447Z,2.67
2017-07-24T22:16:45.246Z,2.00
2017-07-24T22:19:11.047Z,2.70
2017-07-24T22:21:36.768Z,2.93
2017-07-24T22:24:02.476Z,2.93
2017-07-24T22:26:28.219Z,3.27
2017-07-24T22:28:53.958Z,3.17
2017-07-24T22:31:19.727Z,3.87
2017-07-24T22:33:45.473Z,3.80
2017-07-24T22:36:11.180Z,4.27
2017-07-24T22:38:36.977Z,4.07
2017-07-24T22:41:02.701Z,3.80
2017-07-24T22:43:28.521Z,4.30
2017-07-24T22:45:54.291Z,4.50
2017-07-24T22:48:20.037Z,4.70
2017-07-24T22:50:45.737Z,3.20
2017-07-24T22:53:11.509Z,4.47
2017-07-24T22:55:37.311Z,5.10
2017-07-24T22:58:03.147Z,3.90
2017-07-24T23:00:28.984Z,4.73
2017-07-24T23:02:54.841Z,5.20
2017-07-24T23:05:20.574Z,5.10
2017-07-24T23:07:46.284Z,4.43
2017-07-24T23:10:12.009Z,4.00
2017-07-24T23:12:37.854Z,3.40
2017-07-24T23:15:03.631Z,3.20
2017-07-24T23:17:29.356Z,3.03
2017-07-24T23:19:55.062Z,4.13
2017-07-24T23:22:20.814Z,4.40
2017-07-24T23:24:46.596Z,4.63
2017-07-24T23:27:12.331Z,3.73
2017-07-24T23:29:38.112Z,3.73
2017-07-24T23:32:03.870Z,3.80
2017-07-24T23:34:29.680Z,3.70
2017-07-24T23:36:55.437Z,4.00
2017-07-24T23:39:21.146Z,4.23
2017-07-24T23:41:47.018Z,4.40
2017-07-24T23:44:12.772Z,4.43
2017-07-24T23:46:38.573Z,4.17
2017-07-24T23:49:04.410Z,4.70
2017-07-24T23:51:30.295Z,5.30
2017-07-24T23:53:56.047Z,5.03
2017-07-24T23:56:21.882Z,3.40
2017-07-24T23:58:47.658Z,3.80
